createdAt,value
2019-04-21T00:00:37.559Z,1023.97
2019-04-21T00:01:47.428Z,1023.94
2019-04-21T00:02:39.718Z,1023.94
2019-04-21T00:03:43.053Z,1023.94
2019-04-21T00:04:50.769Z,1023.94
2019-04-21T00:05:58.554Z,1023.95
2019-04-21T00:07:01.226Z,1023.92
2019-04-21T00:08:01.192Z,1023.91
2019-04-21T00:08:56.474Z,1023.94
2019-04-21T00:10:02.124Z,1023.88
2019-04-21T00:10:59.390Z,1023.87
2019-04-21T00:11:55.282Z,1023.90
2019-04-21T00:12:53.371Z,1023.89
2019-04-21T00:13:46.747Z,1023.88
2019-04-21T00:14:47.169Z,1023.86
2019-04-21T00:15:45.768Z,1023.87
2019-04-21T00:16:44.128Z,1023.86
2019-04-21T00:17:36.921Z,1023.89
2019-04-21T00:18:46.871Z,1023.87
2019-04-21T00:19:38.994Z,1023.91
2019-04-21T00:20:44.189Z,1023.91
2019-04-21T00:21:44.767Z,1023.90
2019-04-21T00:22:49.066Z,1023.84
2019-04-21T00:23:53.552Z,1023.88
2019-04-21T00:24:51.952Z,1023.86
2019-04-21T00:25:49.873Z,1023.85
2019-04-21T00:26:55.805Z,1023.84
2019-04-21T00:27:51.703Z,1023.84
2019-04-21T00:28:59.465Z,1023.86
2019-04-21T00:29:52.086Z,1023.85
2019-04-21T00:30:57.925Z,1023.83
2019-04-21T00:31:52.861Z,1023.80
2019-04-21T00:32:45.043Z,1023.83
2019-04-21T00:33:39.844Z,1023.82
2019-04-21T00:34:36.330Z,1023.82
2019-04-21T00:35:45.082Z,1023.79
2019-04-21T00:36:48.895Z,1023.76
2019-04-21T00:37:53.366Z,1023.77
2019-04-21T00:39:09.620Z,1023.75
2019-04-21T00:40:01.880Z,1023.72
2019-04-21T00:41:00.564Z,1023.70
2019-04-21T00:41:53.730Z,1023.65
2019-04-21T00:42:55.634Z,1023.64
2019-04-21T00:43:48.916Z,1023.64
2019-04-21T00:44:52.025Z,1023.62
2019-04-21T00:45:50.885Z,1023.62
2019-04-21T00:46:51.608Z,1023.63
2019-04-21T00:48:00.716Z,1023.61
2019-04-21T00:48:57.410Z,1023.60
2019-04-21T00:49:57.829Z,1023.55
2019-04-21T00:51:12.621Z,1023.58
2019-04-21T00:52:07.233Z,1023.58
2019-04-21T00:54:04.000Z,1023.59
2019-04-21T00:55:07.663Z,1023.59
2019-04-21T00:55:59.416Z,1023.58
2019-04-21T00:57:02.670Z,1023.60
2019-04-21T00:58:59.921Z,1023.68
2019-04-21T01:00:00.840Z,1023.63
2019-04-21T01:01:00.490Z,1023.64
2019-04-21T01:01:56.625Z,1023.62
2019-04-21T01:02:59.402Z,1023.66
2019-04-21T01:03:57.813Z,1023.64
2019-04-21T01:04:59.799Z,1023.63
2019-04-21T01:05:57.292Z,1023.64
2019-04-21T01:06:56.077Z,1023.67
2019-04-21T01:07:50.360Z,1023.63
2019-04-21T01:08:55.626Z,1023.66
2019-04-21T01:09:48.612Z,1023.63
2019-04-21T01:10:48.917Z,1023.61
2019-04-21T01:11:55.991Z,1023.60
2019-04-21T01:12:54.726Z,1023.57
2019-04-21T01:14:00.652Z,1023.60
2019-04-21T01:15:04.139Z,1023.61
2019-04-21T01:16:14.745Z,1023.59
2019-04-21T01:17:00.373Z,1023.57
2019-04-21T01:18:01.483Z,1023.58
2019-04-21T01:18:55.334Z,1023.55
2019-04-21T01:19:50.802Z,1023.54
2019-04-21T01:20:34.176Z,1023.56
2019-04-21T01:21:34.168Z,1023.50
2019-04-21T01:22:34.114Z,1023.53
2019-04-21T01:23:34.077Z,1023.53
2019-04-21T01:24:39.568Z,1023.53
2019-04-21T01:25:41.155Z,1023.53
2019-04-21T01:26:49.042Z,1023.52
2019-04-21T01:27:53.749Z,1023.49
2019-04-21T01:28:51.137Z,1023.48
2019-04-21T01:29:53.116Z,1023.52
2019-04-21T01:30:55.248Z,1023.53
2019-04-21T01:31:48.070Z,1023.48
2019-04-21T01:32:55.774Z,1023.50
2019-04-21T01:33:56.176Z,1023.45
2019-04-21T01:35:55.272Z,1023.50
2019-04-21T01:36:51.407Z,1023.47
2019-04-21T01:37:58.849Z,1023.47
2019-04-21T01:38:59.145Z,1023.47
2019-04-21T01:39:58.496Z,1023.45
2019-04-21T01:40:53.102Z,1023.41
2019-04-21T01:41:58.787Z,1023.45
2019-04-21T01:43:00.471Z,1023.43
2019-04-21T01:44:53.207Z,1023.40
2019-04-21T01:45:48.754Z,1023.40
2019-04-21T01:46:49.326Z,1023.38
2019-04-21T01:47:50.916Z,1023.36
2019-04-21T01:48:49.475Z,1023.35
2019-04-21T01:49:43.254Z,1023.36
2019-04-21T01:50:51.175Z,1023.39
2019-04-21T01:52:02.834Z,1023.34
2019-04-21T01:52:56.447Z,1023.38
2019-04-21T01:53:59.556Z,1023.32
2019-04-21T01:54:55.228Z,1023.34
2019-04-21T01:55:54.214Z,1023.41
2019-04-21T01:56:51.000Z,1023.34
2019-04-21T01:57:51.254Z,1023.36
2019-04-21T01:58:44.356Z,1023.36
2019-04-21T01:59:48.908Z,1023.37
2019-04-21T02:00:50.142Z,1023.38
2019-04-21T02:01:59.304Z,1023.32
2019-04-21T02:02:59.556Z,1023.33
2019-04-21T02:05:00.699Z,1023.34
2019-04-21T02:06:00.025Z,1023.31
2019-04-21T02:06:57.354Z,1023.30
2019-04-21T02:07:49.103Z,1023.31
2019-04-21T02:08:48.809Z,1023.29
2019-04-21T02:09:59.338Z,1023.29
2019-04-21T02:10:54.895Z,1023.32
2019-04-21T02:11:56.760Z,1023.26
2019-04-21T02:12:50.698Z,1023.32
2019-04-21T02:13:58.945Z,1023.30
2019-04-21T02:14:58.226Z,1023.28
2019-04-21T02:15:55.513Z,1023.29
2019-04-21T02:16:56.675Z,1023.27
2019-04-21T02:17:54.116Z,1023.30
2019-04-21T02:18:49.445Z,1023.28
2019-04-21T02:19:49.158Z,1023.26
2019-04-21T02:20:41.224Z,1023.29
2019-04-21T02:21:49.183Z,1023.26
2019-04-21T02:23:22.322Z,1023.24
2019-04-21T02:23:58.931Z,1023.27
2019-04-21T02:24:56.826Z,1023.27
2019-04-21T02:25:52.622Z,1023.27
2019-04-21T02:26:55.062Z,1023.28
2019-04-21T02:28:01.235Z,1023.27
2019-04-21T02:28:56.040Z,1023.28
2019-04-21T02:29:55.453Z,1023.25
2019-04-21T02:31:14.187Z,1023.31
2019-04-21T02:32:14.818Z,1023.27
2019-04-21T02:35:24.601Z,1023.32
2019-04-21T02:38:11.387Z,1023.25
2019-04-21T02:39:06.155Z,1023.27
2019-04-21T02:40:04.387Z,1023.22
2019-04-21T02:40:57.271Z,1023.26
2019-04-21T02:43:07.372Z,1023.23
2019-04-21T02:44:08.213Z,1023.23
2019-04-21T02:45:03.951Z,1023.26
2019-04-21T02:47:05.152Z,1023.24
2019-04-21T02:48:04.490Z,1023.28
2019-04-21T02:49:11.206Z,1023.29
2019-04-21T02:50:11.896Z,1023.26
2019-04-21T02:50:57.727Z,1023.26
2019-04-21T02:52:07.247Z,1023.26
2019-04-21T02:53:06.993Z,1023.26
2019-04-21T02:56:05.985Z,1023.25
2019-04-21T02:57:19.092Z,1023.23
2019-04-21T02:59:03.097Z,1023.15
2019-04-21T03:00:06.795Z,1023.13
2019-04-21T03:01:07.512Z,1023.11
2019-04-21T03:02:11.089Z,1023.13
2019-04-21T03:04:00.661Z,1023.11
2019-04-21T03:05:01.857Z,1023.06
2019-04-21T03:05:58.677Z,1023.07
2019-04-21T03:07:09.366Z,1023.03
2019-04-21T03:09:12.885Z,1022.98
2019-04-21T03:10:04.834Z,1023.03
2019-04-21T03:13:05.997Z,1022.95
2019-04-21T03:14:11.061Z,1022.97
2019-04-21T03:15:07.364Z,1022.91
2019-04-21T03:16:09.818Z,1022.92
2019-04-21T03:16:55.682Z,1022.87
2019-04-21T03:18:06.462Z,1022.89
2019-04-21T03:19:06.661Z,1022.87
2019-04-21T03:21:10.826Z,1022.85
2019-04-21T03:22:05.143Z,1022.86
2019-04-21T03:23:07.788Z,1022.86
2019-04-21T03:24:01.258Z,1022.83
2019-04-21T03:25:23.479Z,1022.82
2019-04-21T03:27:09.597Z,1022.79
2019-04-21T03:29:05.870Z,1022.81
2019-04-21T03:29:59.189Z,1022.78
2019-04-21T03:31:31.246Z,1022.79
2019-04-21T03:32:39.906Z,1022.81
2019-04-21T03:33:54.500Z,1022.76
2019-04-21T03:35:34.499Z,1022.73
2019-04-21T03:38:55.396Z,1022.71
2019-04-21T03:40:06.873Z,1022.74
2019-04-21T03:40:57.820Z,1022.74
2019-04-21T03:42:11.398Z,1022.71
2019-04-21T03:43:10.190Z,1022.76
2019-04-21T03:43:59.304Z,1022.75
2019-04-21T03:46:21.116Z,1022.71
2019-04-21T03:47:17.149Z,1022.71
2019-04-21T03:48:05.310Z,1022.76
2019-04-21T03:49:04.873Z,1022.75
2019-04-21T03:50:04.622Z,1022.76
2019-04-21T03:50:59.495Z,1022.76
2019-04-21T03:52:03.543Z,1022.78
2019-04-21T03:54:00.282Z,1022.76
2019-04-21T03:55:25.226Z,1022.75
2019-04-21T03:56:01.242Z,1022.81
2019-04-21T03:57:10.816Z,1022.76
2019-04-21T04:00:08.990Z,1022.75
2019-04-21T04:01:05.902Z,1022.74
2019-04-21T04:02:08.382Z,1022.78
2019-04-21T04:03:07.626Z,1022.76
2019-04-21T04:04:11.569Z,1022.74
2019-04-21T04:05:03.380Z,1022.75
2019-04-21T04:08:17.236Z,1022.75
2019-04-21T04:10:06.314Z,1022.72
2019-04-21T04:11:12.024Z,1022.70
2019-04-21T04:11:56.675Z,1022.67
2019-04-21T04:12:57.111Z,1022.71
2019-04-21T04:15:07.187Z,1022.72
2019-04-21T04:16:06.967Z,1022.70
2019-04-21T04:17:04.658Z,1022.68
2019-04-21T04:17:57.978Z,1022.69
2019-04-21T04:19:56.147Z,1022.67
2019-04-21T04:21:08.967Z,1022.68
2019-04-21T04:22:09.099Z,1022.70
2019-04-21T04:24:29.921Z,1022.66
2019-04-21T04:25:11.501Z,1022.70
2019-04-21T04:26:02.442Z,1022.64
2019-04-21T04:27:07.991Z,1022.62
2019-04-21T04:29:04.335Z,1022.65
2019-04-21T04:29:59.084Z,1022.64
2019-04-21T04:32:57.329Z,1022.66
2019-04-21T04:34:04.984Z,1022.69
2019-04-21T04:35:03.366Z,1022.68
2019-04-21T04:37:05.952Z,1022.67
2019-04-21T04:37:57.312Z,1022.68
2019-04-21T04:39:16.308Z,1022.64
2019-04-21T04:40:05.713Z,1022.66
2019-04-21T04:42:08.029Z,1022.68
2019-04-21T04:42:55.903Z,1022.64
2019-04-21T04:44:06.095Z,1022.65
2019-04-21T04:45:05.824Z,1022.66
2019-04-21T04:45:56.387Z,1022.71
2019-04-21T04:47:05.476Z,1022.67
2019-04-21T04:47:59.066Z,1022.68
2019-04-21T04:49:08.033Z,1022.71
2019-04-21T04:49:55.030Z,1022.74
2019-04-21T04:53:01.229Z,1022.66
2019-04-21T04:54:17.137Z,1022.69
2019-04-21T04:55:54.761Z,1022.71
2019-04-21T04:57:59.270Z,1022.68
2019-04-21T05:00:13.600Z,1022.72
2019-04-21T05:02:15.170Z,1022.66
2019-04-21T05:02:58.817Z,1022.71
2019-04-21T05:03:56.910Z,1022.68
2019-04-21T05:05:09.203Z,1022.69
2019-04-21T05:06:10.570Z,1022.70
2019-04-21T05:07:00.113Z,1022.67
2019-04-21T05:07:57.299Z,1022.67
2019-04-21T05:09:59.644Z,1022.71
2019-04-21T05:11:08.022Z,1022.72
2019-04-21T05:12:53.215Z,1022.70
2019-04-21T05:14:02.663Z,1022.69
2019-04-21T05:16:02.529Z,1022.70
2019-04-21T05:16:55.413Z,1022.69
2019-04-21T05:17:50.464Z,1022.67
2019-04-21T05:19:04.530Z,1022.65
2019-04-21T05:21:04.047Z,1022.65
2019-04-21T05:22:11.061Z,1022.63
2019-04-21T05:22:53.248Z,1022.68
2019-04-21T05:23:48.500Z,1022.64
2019-04-21T05:24:44.022Z,1022.67
2019-04-21T05:25:43.258Z,1022.64
2019-04-21T05:26:46.237Z,1022.62
2019-04-21T05:27:42.970Z,1022.64
2019-04-21T05:28:42.009Z,1022.65
2019-04-21T05:29:53.532Z,1022.59
2019-04-21T05:30:52.022Z,1022.61
2019-04-21T05:31:50.657Z,1022.60
2019-04-21T05:32:48.761Z,1022.60
2019-04-21T05:33:46.510Z,1022.61
2019-04-21T05:34:44.244Z,1022.62
2019-04-21T05:35:45.216Z,1022.58
2019-04-21T05:36:45.976Z,1022.64
2019-04-21T05:37:43.666Z,1022.62
2019-04-21T05:38:43.671Z,1022.63
2019-04-21T05:39:43.557Z,1022.60
2019-04-21T05:40:38.931Z,1022.64
2019-04-21T05:41:34.832Z,1022.63
2019-04-21T05:42:44.190Z,1022.65
2019-04-21T05:43:48.437Z,1022.63
2019-04-21T05:44:58.138Z,1022.60
2019-04-21T05:45:50.107Z,1022.63
2019-04-21T05:46:49.214Z,1022.61
2019-04-21T05:47:46.354Z,1022.60
2019-04-21T05:48:45.492Z,1022.63
2019-04-21T05:49:45.213Z,1022.60
2019-04-21T05:50:44.118Z,1022.64
2019-04-21T05:51:41.188Z,1022.60
2019-04-21T05:52:41.825Z,1022.57
2019-04-21T05:53:49.270Z,1022.63
2019-04-21T05:54:52.996Z,1022.64
2019-04-21T05:55:51.865Z,1022.64
2019-04-21T05:56:48.698Z,1022.66
2019-04-21T05:57:47.837Z,1022.67
2019-04-21T05:58:54.156Z,1022.70
2019-04-21T05:59:50.316Z,1022.69
2019-04-21T06:01:46.845Z,1022.68
2019-04-21T06:02:49.558Z,1022.70
2019-04-21T06:03:53.057Z,1022.71
2019-04-21T06:05:18.423Z,1022.74
2019-04-21T06:06:00.765Z,1022.69
2019-04-21T06:06:48.037Z,1022.70
2019-04-21T06:07:46.121Z,1022.72
2019-04-21T06:08:42.269Z,1022.74
2019-04-21T06:09:52.546Z,1022.73
2019-04-21T06:10:52.979Z,1022.69
2019-04-21T06:11:45.488Z,1022.74
2019-04-21T06:12:57.711Z,1022.68
2019-04-21T06:14:50.824Z,1022.70
2019-04-21T06:15:54.862Z,1022.70
2019-04-21T06:16:48.200Z,1022.71
2019-04-21T06:17:55.051Z,1022.65
2019-04-21T06:18:53.246Z,1022.65
2019-04-21T06:19:49.366Z,1022.67
2019-04-21T06:20:46.787Z,1022.67
2019-04-21T06:21:44.974Z,1022.67
2019-04-21T06:22:53.340Z,1022.68
2019-04-21T06:23:45.610Z,1022.69
2019-04-21T06:25:15.236Z,1022.67
2019-04-21T06:27:44.346Z,1022.62
2019-04-21T06:28:50.469Z,1022.63
2019-04-21T06:29:50.189Z,1022.64
2019-04-21T06:32:49.133Z,1022.64
2019-04-21T06:35:11.200Z,1022.61
2019-04-21T06:35:58.776Z,1022.64
2019-04-21T06:36:49.548Z,1022.63
2019-04-21T06:37:55.000Z,1022.62
2019-04-21T06:38:58.306Z,1022.61
2019-04-21T06:40:03.293Z,1022.65
2019-04-21T06:40:52.668Z,1022.62
2019-04-21T06:41:46.578Z,1022.62
2019-04-21T06:42:51.355Z,1022.62
2019-04-21T06:44:54.538Z,1022.66
2019-04-21T06:45:54.387Z,1022.64
2019-04-21T06:46:45.704Z,1022.65
2019-04-21T06:47:51.191Z,1022.65
2019-04-21T06:48:53.841Z,1022.63
2019-04-21T06:49:43.866Z,1022.60
2019-04-21T06:50:52.601Z,1022.61
2019-04-21T06:51:42.950Z,1022.64
2019-04-21T06:53:55.421Z,1022.64
2019-04-21T06:54:53.291Z,1022.58
2019-04-21T06:55:49.724Z,1022.61
2019-04-21T06:56:47.955Z,1022.63
2019-04-21T06:57:45.674Z,1022.61
2019-04-21T06:58:42.811Z,1022.60
2019-04-21T06:59:43.625Z,1022.60
2019-04-21T07:00:41.353Z,1022.58
2019-04-21T07:02:18.362Z,1022.58
2019-04-21T07:03:08.361Z,1022.58
2019-04-21T07:03:49.384Z,1022.57
2019-04-21T07:04:50.147Z,1022.55
2019-04-21T07:05:51.403Z,1022.53
2019-04-21T07:08:05.764Z,1022.57
2019-04-21T07:08:52.918Z,1022.56
2019-04-21T07:09:52.755Z,1022.57
2019-04-21T07:10:44.421Z,1022.56
2019-04-21T07:11:43.872Z,1022.57
2019-04-21T07:12:44.904Z,1022.58
2019-04-21T07:13:50.893Z,1022.58
2019-04-21T07:14:42.101Z,1022.56
2019-04-21T07:15:43.524Z,1022.54
2019-04-21T07:16:51.454Z,1022.59
2019-04-21T07:17:46.969Z,1022.59
2019-04-21T07:18:54.073Z,1022.58
2019-04-21T07:19:48.422Z,1022.55
2019-04-21T07:20:49.004Z,1022.54
2019-04-21T07:21:45.489Z,1022.54
2019-04-21T07:22:48.095Z,1022.52
2019-04-21T07:23:47.287Z,1022.51
2019-04-21T07:24:43.490Z,1022.50
2019-04-21T07:25:48.274Z,1022.49
2019-04-21T07:26:45.973Z,1022.51
2019-04-21T07:27:50.718Z,1022.50
2019-04-21T07:28:47.943Z,1022.53
2019-04-21T07:29:50.671Z,1022.50
2019-04-21T07:30:43.942Z,1022.50
2019-04-21T07:32:49.460Z,1022.53
2019-04-21T07:33:53.423Z,1022.55
2019-04-21T07:34:49.853Z,1022.55
2019-04-21T07:35:43.210Z,1022.53
2019-04-21T07:36:52.634Z,1022.53
2019-04-21T07:37:41.292Z,1022.52
2019-04-21T07:38:39.543Z,1022.51
2019-04-21T07:39:38.920Z,1022.50
2019-04-21T07:40:33.390Z,1022.50
2019-04-21T07:41:39.794Z,1022.46
2019-04-21T07:42:38.032Z,1022.49
2019-04-21T07:43:39.890Z,1022.50
2019-04-21T07:44:36.537Z,1022.45
2019-04-21T07:45:36.718Z,1022.45
2019-04-21T07:46:33.678Z,1022.46
2019-04-21T07:47:44.445Z,1022.45
2019-04-21T07:48:44.833Z,1022.41
2019-04-21T07:49:49.512Z,1022.42
2019-04-21T07:50:38.935Z,1022.45
2019-04-21T07:51:49.044Z,1022.40
2019-04-21T07:52:48.505Z,1022.37
2019-04-21T07:53:50.564Z,1022.40
2019-04-21T07:54:44.568Z,1022.37
2019-04-21T07:56:28.805Z,1022.36
2019-04-21T07:57:38.679Z,1022.35
2019-04-21T07:58:45.539Z,1022.32
2019-04-21T07:59:48.560Z,1022.30
2019-04-21T08:01:45.352Z,1022.29
2019-04-21T08:02:43.754Z,1022.25
2019-04-21T08:03:46.128Z,1022.27
2019-04-21T08:04:53.979Z,1022.26
2019-04-21T08:05:47.195Z,1022.27
2019-04-21T08:06:40.588Z,1022.29
2019-04-21T08:08:41.060Z,1022.27
2019-04-21T08:09:42.682Z,1022.25
2019-04-21T08:10:37.793Z,1022.22
2019-04-21T08:11:36.328Z,1022.18
2019-04-21T08:12:36.323Z,1022.21
2019-04-21T08:13:44.936Z,1022.18
2019-04-21T08:14:43.674Z,1022.18
2019-04-21T08:16:06.191Z,1022.18
2019-04-21T08:16:49.958Z,1022.16
2019-04-21T08:17:41.511Z,1022.17
2019-04-21T08:18:39.373Z,1022.14
2019-04-21T08:19:35.213Z,1022.17
2019-04-21T08:20:35.262Z,1022.18
2019-04-21T08:21:40.474Z,1022.19
2019-04-21T08:22:46.342Z,1022.17
2019-04-21T08:23:41.579Z,1022.17
2019-04-21T08:24:42.377Z,1022.14
2019-04-21T08:25:45.844Z,1022.18
2019-04-21T08:26:44.964Z,1022.13
2019-04-21T08:27:51.263Z,1022.17
2019-04-21T08:30:55.444Z,1022.13
2019-04-21T08:31:50.001Z,1022.11
2019-04-21T08:32:52.791Z,1022.11
2019-04-21T08:33:46.773Z,1022.08
2019-04-21T08:34:52.600Z,1022.15
2019-04-21T08:36:40.326Z,1022.09
2019-04-21T08:37:37.047Z,1022.07
2019-04-21T08:38:41.732Z,1022.11
2019-04-21T08:39:49.700Z,1022.10
2019-04-21T08:40:59.016Z,1022.05
2019-04-21T08:41:40.898Z,1022.02
2019-04-21T08:42:39.352Z,1022.05
2019-04-21T08:43:42.592Z,1022.07
2019-04-21T08:44:40.278Z,1022.04
2019-04-21T08:45:41.876Z,1022.07
2019-04-21T08:46:38.921Z,1022.06
2019-04-21T08:47:44.174Z,1022.03
2019-04-21T08:48:43.889Z,1022.04
2019-04-21T08:49:41.288Z,1022.03
2019-04-21T08:50:37.668Z,1022.00
2019-04-21T08:51:39.572Z,1021.99
2019-04-21T08:52:49.206Z,1022.02
2019-04-21T08:53:44.185Z,1022.02
2019-04-21T08:54:40.923Z,1022.01
2019-04-21T08:55:42.890Z,1021.97
2019-04-21T08:56:43.505Z,1021.96
2019-04-21T08:57:52.616Z,1021.93
2019-04-21T08:58:42.887Z,1021.93
2019-04-21T08:59:36.370Z,1021.91
2019-04-21T09:00:45.342Z,1021.93
2019-04-21T09:01:45.254Z,1021.89
2019-04-21T09:02:42.593Z,1021.90
2019-04-21T09:03:43.394Z,1021.89
2019-04-21T09:04:35.166Z,1021.85
2019-04-21T09:05:35.605Z,1021.87
2019-04-21T09:06:54.289Z,1021.80
2019-04-21T09:07:41.337Z,1021.87
2019-04-21T09:08:39.638Z,1021.81
2019-04-21T09:09:41.579Z,1021.83
2019-04-21T09:10:42.231Z,1021.77
2019-04-21T09:11:37.613Z,1021.75
2019-04-21T09:12:34.613Z,1021.76
2019-04-21T09:13:37.072Z,1021.78
2019-04-21T09:14:36.636Z,1021.74
2019-04-21T09:15:35.069Z,1021.76
2019-04-21T09:16:39.668Z,1021.75
2019-04-21T09:17:30.463Z,1021.73
2019-04-21T09:18:36.559Z,1021.73
2019-04-21T09:19:53.403Z,1021.71
2019-04-21T09:21:37.436Z,1021.71
2019-04-21T09:22:35.711Z,1021.72
2019-04-21T09:23:39.222Z,1021.70
2019-04-21T09:24:42.795Z,1021.72
2019-04-21T09:25:40.758Z,1021.66
2019-04-21T09:26:34.052Z,1021.67
2019-04-21T09:27:39.014Z,1021.68
2019-04-21T09:28:36.720Z,1021.62
2019-04-21T09:29:28.636Z,1021.62
2019-04-21T09:30:19.836Z,1021.61
2019-04-21T09:31:24.097Z,1021.57
2019-04-21T09:32:23.866Z,1021.59
2019-04-21T09:33:20.831Z,1021.62
2019-04-21T09:34:24.879Z,1021.60
2019-04-21T09:35:20.450Z,1021.61
2019-04-21T09:36:22.115Z,1021.58
2019-04-21T09:37:28.646Z,1021.52
2019-04-21T09:38:27.680Z,1021.53
2019-04-21T09:39:22.230Z,1021.54
2019-04-21T09:40:34.010Z,1021.50
2019-04-21T09:41:22.148Z,1021.49
2019-04-21T09:42:21.204Z,1021.46
2019-04-21T09:43:27.973Z,1021.40
2019-04-21T09:44:25.981Z,1021.42
2019-04-21T09:45:22.387Z,1021.37
2019-04-21T09:46:18.668Z,1021.42
2019-04-21T09:47:22.907Z,1021.39
2019-04-21T09:48:21.082Z,1021.44
2019-04-21T09:49:23.528Z,1021.39
2019-04-21T09:50:19.750Z,1021.41
2019-04-21T09:51:19.976Z,1021.36
2019-04-21T09:52:21.925Z,1021.36
2019-04-21T09:53:26.884Z,1021.29
2019-04-21T09:54:24.863Z,1021.30
2019-04-21T09:55:22.552Z,1021.29
2019-04-21T09:56:30.258Z,1021.27
2019-04-21T09:57:27.398Z,1021.25
2019-04-21T09:58:27.349Z,1021.24
2019-04-21T09:59:26.309Z,1021.27
2019-04-21T10:00:21.180Z,1021.21
2019-04-21T10:01:26.814Z,1021.18
2019-04-21T10:02:31.039Z,1021.17
2019-04-21T10:03:19.762Z,1021.18
2019-04-21T10:04:18.955Z,1021.18
2019-04-21T10:05:19.114Z,1021.15
2019-04-21T10:06:19.550Z,1021.14
2019-04-21T10:07:26.493Z,1021.15
2019-04-21T10:08:18.836Z,1021.16
2019-04-21T10:09:20.189Z,1021.17
2019-04-21T10:10:19.149Z,1021.15
2019-04-21T10:11:20.527Z,1021.17
2019-04-21T10:12:18.010Z,1021.13
2019-04-21T10:13:18.004Z,1021.11
2019-04-21T10:14:17.980Z,1021.00
2019-04-21T10:15:19.113Z,1021.04
2019-04-21T10:16:17.909Z,1021.05
2019-04-21T10:17:17.889Z,1021.09
2019-04-21T10:18:17.860Z,1021.00
2019-04-21T10:19:17.861Z,1021.00
2019-04-21T10:20:17.809Z,1021.04
2019-04-21T10:21:19.790Z,1020.98
2019-04-21T10:22:19.026Z,1020.95
2019-04-21T10:23:17.882Z,1020.97
2019-04-21T10:24:18.029Z,1020.98
2019-04-21T10:25:18.661Z,1020.95
2019-04-21T10:26:18.736Z,1020.96
2019-04-21T10:27:18.904Z,1020.90
2019-04-21T10:28:18.974Z,1020.91
2019-04-21T10:29:25.463Z,1020.89
2019-04-21T10:30:17.580Z,1020.87
2019-04-21T10:31:18.522Z,1020.84
2019-04-21T10:32:21.304Z,1020.84
2019-04-21T10:33:18.547Z,1020.82
2019-04-21T10:34:17.458Z,1020.80
2019-04-21T10:35:20.417Z,1020.79
2019-04-21T10:36:17.410Z,1020.78
2019-04-21T10:37:18.672Z,1020.75
2019-04-21T10:38:29.302Z,1020.76
2019-04-21T10:39:17.814Z,1020.75
2019-04-21T10:40:17.996Z,1020.74
2019-04-21T10:41:17.314Z,1020.76
2019-04-21T10:42:17.394Z,1020.76
2019-04-21T10:43:21.663Z,1020.75
2019-04-21T10:44:17.235Z,1020.74
2019-04-21T10:45:17.223Z,1020.74
2019-04-21T10:46:17.161Z,1020.71
2019-04-21T10:47:18.348Z,1020.68
2019-04-21T10:48:17.111Z,1020.65
2019-04-21T10:49:17.160Z,1020.65
2019-04-21T10:50:18.273Z,1020.63
2019-04-21T10:51:17.223Z,1020.64
2019-04-21T10:52:17.155Z,1020.59
2019-04-21T10:53:17.019Z,1020.56
2019-04-21T10:54:17.896Z,1020.58
2019-04-21T10:55:36.362Z,1020.54
2019-04-21T10:56:25.206Z,1020.53
2019-04-21T10:57:16.892Z,1020.56
2019-04-21T10:58:18.245Z,1020.56
2019-04-21T10:59:18.275Z,1020.53
2019-04-21T11:00:17.551Z,1020.52
2019-04-21T11:01:16.896Z,1020.53
2019-04-21T11:02:17.081Z,1020.47
2019-04-21T11:03:17.128Z,1020.47
2019-04-21T11:04:22.791Z,1020.47
2019-04-21T11:05:16.813Z,1020.55
2019-04-21T11:06:16.932Z,1020.43
2019-04-21T11:07:19.623Z,1020.38
2019-04-21T11:08:24.567Z,1020.42
2019-04-21T11:09:17.801Z,1020.42
2019-04-21T11:10:18.171Z,1020.42
2019-04-21T11:11:16.551Z,1020.41
2019-04-21T11:12:17.541Z,1020.43
2019-04-21T11:13:16.634Z,1020.42
2019-04-21T11:14:17.590Z,1020.39
2019-04-21T11:15:17.121Z,1020.41
2019-04-21T11:16:17.256Z,1020.35
2019-04-21T11:17:16.524Z,1020.39
2019-04-21T11:18:17.680Z,1020.35
2019-04-21T11:19:16.357Z,1020.35
2019-04-21T11:20:17.244Z,1020.32
2019-04-21T11:21:16.642Z,1020.28
2019-04-21T11:22:16.776Z,1020.31
2019-04-21T11:23:19.115Z,1020.29
2019-04-21T11:24:17.825Z,1020.27
2019-04-21T11:25:16.237Z,1020.31
2019-04-21T11:26:16.188Z,1020.25
2019-04-21T11:27:17.008Z,1020.25
2019-04-21T11:28:16.693Z,1020.23
2019-04-21T11:29:17.052Z,1020.22
2019-04-21T11:30:16.121Z,1020.16
2019-04-21T11:31:16.086Z,1020.17
2019-04-21T11:32:16.845Z,1020.18
2019-04-21T11:33:17.139Z,1020.16
2019-04-21T11:34:15.988Z,1020.09
2019-04-21T11:35:17.063Z,1020.06
2019-04-21T11:36:17.280Z,1020.08
2019-04-21T11:37:16.441Z,1020.12
2019-04-21T11:38:20.412Z,1020.10
2019-04-21T11:39:24.692Z,1020.07
2019-04-21T11:40:18.123Z,1019.99
2019-04-21T11:41:16.096Z,1020.05
2019-04-21T11:42:15.794Z,1020.00
2019-04-21T11:43:15.808Z,1020.02
2019-04-21T11:44:16.295Z,1020.01
2019-04-21T11:45:16.536Z,1020.00
2019-04-21T11:46:16.261Z,1019.97
2019-04-21T11:47:16.364Z,1019.97
2019-04-21T11:48:16.615Z,1019.98
2019-04-21T11:49:15.896Z,1019.97
2019-04-21T11:50:16.986Z,1020.01
2019-04-21T11:51:15.600Z,1019.96
2019-04-21T11:52:16.551Z,1019.94
2019-04-21T11:53:16.768Z,1019.97
2019-04-21T11:54:15.501Z,1019.92
2019-04-21T11:55:16.598Z,1019.91
2019-04-21T11:56:16.721Z,1019.90
2019-04-21T11:57:22.700Z,1019.90
2019-04-21T11:58:15.996Z,1019.86
2019-04-21T11:59:15.593Z,1019.92
2019-04-21T12:00:15.741Z,1019.98
2019-04-21T12:01:15.861Z,1019.90
2019-04-21T12:02:15.310Z,1019.85
2019-04-21T12:03:16.949Z,1019.83
2019-04-21T12:04:16.101Z,1019.79
2019-04-21T12:05:15.294Z,1019.77
2019-04-21T12:06:15.507Z,1019.76
2019-04-21T12:07:15.454Z,1019.73
2019-04-21T12:08:23.345Z,1019.78
2019-04-21T12:09:15.139Z,1019.74
2019-04-21T12:10:15.512Z,1019.73
2019-04-21T12:11:15.853Z,1019.74
2019-04-21T12:12:15.158Z,1019.70
2019-04-21T12:13:16.167Z,1019.69
2019-04-21T12:14:16.177Z,1019.68
2019-04-21T12:15:15.035Z,1019.68
2019-04-21T12:16:15.147Z,1019.63
2019-04-21T12:17:16.060Z,1019.66
2019-04-21T12:18:15.515Z,1019.65
2019-04-21T12:19:14.903Z,1019.63
2019-04-21T12:20:14.930Z,1019.59
2019-04-21T12:21:15.718Z,1019.57
2019-04-21T12:22:21.263Z,1019.56
2019-04-21T12:23:14.841Z,1019.54
2019-04-21T12:24:15.223Z,1019.53
2019-04-21T12:25:15.532Z,1019.54
2019-04-21T12:26:15.910Z,1019.52
2019-04-21T12:27:16.063Z,1019.52
2019-04-21T12:28:15.978Z,1019.47
2019-04-21T12:29:14.685Z,1019.50
2019-04-21T12:30:15.674Z,1019.48
2019-04-21T12:31:15.747Z,1019.47
2019-04-21T12:32:15.831Z,1019.43
2019-04-21T12:33:16.067Z,1019.44
2019-04-21T12:34:14.540Z,1019.42
2019-04-21T12:35:15.758Z,1019.38
2019-04-21T12:36:15.730Z,1019.36
2019-04-21T12:37:15.095Z,1019.38
2019-04-21T12:38:14.491Z,1019.37
2019-04-21T12:39:14.944Z,1019.34
2019-04-21T12:40:14.761Z,1019.34
2019-04-21T12:41:14.931Z,1019.31
2019-04-21T12:42:14.540Z,1019.30
2019-04-21T12:43:14.727Z,1019.28
2019-04-21T12:44:14.890Z,1019.26
2019-04-21T12:45:15.196Z,1019.21
2019-04-21T12:46:14.267Z,1019.17
2019-04-21T12:47:14.325Z,1019.20
2019-04-21T12:48:15.926Z,1019.19
2019-04-21T12:49:14.187Z,1019.14
2019-04-21T12:50:14.851Z,1019.13
2019-04-21T12:51:15.462Z,1019.12
2019-04-21T12:52:14.470Z,1019.14
2019-04-21T12:53:15.672Z,1019.13
2019-04-21T12:54:15.344Z,1019.14
2019-04-21T12:55:15.407Z,1019.13
2019-04-21T12:56:14.021Z,1019.06
2019-04-21T12:57:14.025Z,1019.07
2019-04-21T12:58:15.186Z,1019.03
2019-04-21T12:59:14.902Z,1019.04
2019-04-21T13:00:15.037Z,1019.01
2019-04-21T13:01:14.710Z,1018.96
2019-04-21T13:02:13.910Z,1018.99
2019-04-21T13:03:14.195Z,1018.92
2019-04-21T13:04:13.851Z,1018.92
2019-04-21T13:05:13.812Z,1018.91
2019-04-21T13:06:13.929Z,1018.90
2019-04-21T13:07:13.798Z,1018.92
2019-04-21T13:08:13.745Z,1018.89
2019-04-21T13:09:17.972Z,1018.87
2019-04-21T13:10:13.697Z,1018.87
2019-04-21T13:11:14.929Z,1018.87
2019-04-21T13:12:13.676Z,1018.85
2019-04-21T13:13:14.363Z,1018.83